Parkland, Pennsylvania
Current Conditions -  °F | °C
As of 10:54 PM on Tuesday 21 Oct 2014 (Local Time) from KPNE Reporting Station
Overcast Overcast  
Wind Chill: 58°   Ceiling: 6500
Heat Index: 58°   Visibility: 10mi
Dew Point: 49°   Wind: 8mph
Humidity: 72%   Direction: 40°NE
Pressure: 29.91"   Gusts: NA
Location:  40.1816°N, 74.9144°W
Report Text: KPNE 220254Z 04007KT 10SM OVC065 14/09 A2991 RMK AO2 SLP126 60000 T01440094 51016 $
Loading
Personal Weather Stations






























Interactive Weather Map
Tropical Storm Tracking
New forecast layout! Learn more

10-Day Weather Forecast

Advertisements
Track Severe Weather on mobile